createdAt,value
2022-10-07T00:00:00.241Z,3.00
2022-10-07T00:02:30.404Z,3.70
2022-10-07T00:05:03.257Z,3.00
2022-10-07T00:07:33.359Z,3.35
2022-10-07T00:10:03.512Z,2.67
2022-10-07T00:12:33.819Z,3.27
2022-10-07T00:15:03.986Z,2.83
2022-10-07T00:17:34.051Z,3.13
2022-10-07T00:20:07.391Z,3.50
2022-10-07T00:22:37.550Z,3.17
2022-10-07T00:25:09.222Z,3.37
2022-10-07T00:27:39.337Z,3.40
2022-10-07T00:30:11.564Z,3.30
2022-10-07T00:32:41.678Z,3.75
2022-10-07T00:35:14.620Z,3.00
2022-10-07T00:37:46.086Z,2.92
2022-10-07T00:40:17.044Z,3.22
2022-10-07T00:42:47.220Z,3.63
2022-10-07T00:45:22.164Z,2.70
2022-10-07T00:47:53.803Z,3.10
2022-10-07T00:50:30.816Z,3.10
2022-10-07T00:53:05.207Z,2.92
2022-10-07T00:55:36.043Z,3.28
2022-10-07T00:58:09.922Z,3.00
2022-10-07T01:00:41.169Z,4.15
2022-10-07T01:03:11.424Z,3.00
2022-10-07T01:05:44.275Z,2.60
2022-10-07T01:08:15.908Z,2.80
2022-10-07T01:10:57.978Z,2.60
2022-10-07T01:13:37.849Z,2.72
2022-10-07T01:16:17.126Z,2.75
2022-10-07T01:18:55.568Z,3.22
2022-10-07T01:21:42.342Z,2.90
2022-10-07T01:24:29.204Z,3.05
2022-10-07T01:27:06.994Z,2.95
2022-10-07T01:29:42.269Z,2.80
2022-10-07T01:32:18.481Z,2.72
2022-10-07T01:34:50.136Z,3.00
2022-10-07T01:37:22.940Z,3.08
2022-10-07T01:39:58.298Z,3.08
2022-10-07T01:42:31.852Z,3.17
2022-10-07T01:45:03.221Z,2.78
2022-10-07T01:47:33.525Z,2.67
2022-10-07T01:50:03.922Z,2.72
2022-10-07T01:52:51.061Z,3.00
2022-10-07T01:55:40.906Z,3.10
2022-10-07T01:58:34.218Z,2.95
2022-10-07T02:01:23.205Z,3.05
2022-10-07T02:04:23.325Z,2.88
2022-10-07T02:07:03.796Z,2.63
2022-10-07T02:09:43.431Z,3.00
2022-10-07T02:12:21.284Z,2.75
2022-10-07T02:15:03.646Z,2.80
2022-10-07T02:17:39.275Z,2.58
2022-10-07T02:20:16.047Z,2.67
2022-10-07T02:22:49.807Z,2.78
2022-10-07T02:25:24.744Z,2.75
2022-10-07T02:27:57.711Z,2.10
2022-10-07T02:30:31.739Z,2.60
2022-10-07T02:33:04.165Z,2.80
2022-10-07T02:35:40.131Z,2.75
2022-10-07T02:38:15.274Z,2.53
2022-10-07T02:40:53.993Z,3.15
2022-10-07T02:43:32.618Z,2.70
2022-10-07T02:46:11.777Z,2.88
2022-10-07T02:48:49.382Z,2.60
2022-10-07T02:51:24.387Z,3.05
2022-10-07T02:53:56.325Z,2.80
2022-10-07T02:56:30.457Z,2.75
2022-10-07T02:59:03.933Z,2.65
2022-10-07T03:01:46.677Z,2.40
2022-10-07T03:04:18.836Z,2.67
2022-10-07T03:06:49.828Z,3.33
2022-10-07T03:09:20.115Z,2.83
2022-10-07T03:11:50.471Z,3.00
2022-10-07T03:14:20.837Z,2.65
2022-10-07T03:16:53.702Z,2.87
2022-10-07T03:19:24.709Z,2.90
2022-10-07T03:21:57.888Z,3.20
2022-10-07T03:24:28.498Z,3.07
2022-10-07T03:26:58.760Z,2.50
2022-10-07T03:29:32.901Z,3.20
2022-10-07T03:32:06.046Z,2.90
2022-10-07T03:34:37.748Z,2.92
2022-10-07T03:37:08.043Z,3.08
2022-10-07T03:39:38.350Z,2.90
2022-10-07T03:42:08.984Z,2.97
2022-10-07T03:44:39.403Z,2.88
2022-10-07T03:47:12.885Z,3.13
2022-10-07T03:49:43.138Z,3.00
2022-10-07T03:52:14.290Z,2.90
2022-10-07T03:54:44.875Z,2.70
2022-10-07T03:57:27.625Z,3.38
2022-10-07T03:59:58.949Z,2.97
2022-10-07T04:02:31.710Z,3.53
2022-10-07T04:05:01.836Z,3.50
2022-10-07T04:07:33.343Z,3.20
2022-10-07T04:10:04.143Z,3.38
2022-10-07T04:12:34.461Z,2.78
2022-10-07T04:15:05.291Z,3.10
2022-10-07T04:17:38.078Z,3.60
2022-10-07T04:20:09.683Z,3.95
2022-10-07T04:22:40.731Z,3.83
2022-10-07T04:25:27.448Z,4.13
2022-10-07T04:28:00.478Z,3.60
2022-10-07T04:30:34.927Z,3.83
2022-10-07T04:33:09.100Z,4.22
2022-10-07T04:35:41.345Z,4.00
2022-10-07T04:38:14.871Z,3.22
2022-10-07T04:40:47.986Z,3.17
2022-10-07T04:43:23.697Z,3.33
2022-10-07T04:46:06.224Z,3.10
2022-10-07T04:48:42.136Z,3.45
2022-10-07T04:51:13.182Z,3.90
2022-10-07T04:53:45.497Z,3.38
2022-10-07T04:56:15.831Z,3.60
2022-10-07T04:58:46.017Z,4.38
2022-10-07T05:01:16.765Z,5.20
2022-10-07T05:03:52.402Z,3.88
2022-10-07T05:06:22.504Z,4.20
2022-10-07T05:08:54.381Z,3.90
2022-10-07T05:11:26.142Z,3.70
2022-10-07T05:14:09.075Z,3.85
2022-10-07T05:16:40.121Z,4.40
2022-10-07T05:19:14.037Z,4.10
2022-10-07T05:21:44.848Z,5.03
2022-10-07T05:24:15.047Z,4.50
2022-10-07T05:26:46.114Z,4.45
2022-10-07T05:29:16.544Z,4.18
2022-10-07T05:31:51.239Z,6.03
2022-10-07T05:34:27.511Z,4.00
2022-10-07T05:36:59.397Z,4.35
2022-10-07T05:39:30.497Z,5.22
2022-10-07T05:42:21.277Z,5.30
2022-10-07T05:44:57.331Z,4.68
2022-10-07T05:47:27.742Z,5.68
2022-10-07T05:50:00.712Z,4.82
2022-10-07T05:52:32.370Z,5.40
2022-10-07T05:55:02.677Z,4.65
2022-10-07T05:57:33.626Z,4.45
2022-10-07T06:00:04.730Z,5.63
2022-10-07T06:02:44.480Z,5.50
2022-10-07T06:05:19.041Z,6.00
2022-10-07T06:07:49.730Z,6.05
2022-10-07T06:10:32.633Z,5.85
2022-10-07T06:13:11.873Z,6.20
2022-10-07T06:15:44.255Z,5.97
2022-10-07T06:18:14.454Z,5.23
2022-10-07T06:20:57.399Z,5.32
2022-10-07T06:23:30.440Z,5.95
2022-10-07T06:26:04.642Z,5.28
2022-10-07T06:28:37.629Z,6.25
2022-10-07T06:31:10.963Z,5.40
2022-10-07T06:33:42.199Z,5.30
2022-10-07T06:38:50.115Z,4.95
2022-10-07T06:41:23.943Z,5.40
2022-10-07T06:44:06.164Z,5.50
2022-10-07T06:46:37.520Z,5.57
2022-10-07T06:49:10.696Z,6.50
2022-10-07T06:51:44.612Z,5.65
2022-10-07T06:54:14.743Z,5.93
2022-10-07T06:56:44.855Z,5.23
2022-10-07T06:59:15.069Z,5.73
2022-10-07T07:01:59.393Z,5.82
2022-10-07T07:04:29.847Z,6.40
2022-10-07T07:07:02.876Z,5.65
2022-10-07T07:09:34.953Z,5.50
2022-10-07T07:12:05.438Z,6.50
2022-10-07T07:14:39.398Z,5.60
2022-10-07T07:17:14.757Z,4.57
2022-10-07T07:19:44.975Z,4.18
2022-10-07T07:22:18.053Z,4.93
2022-10-07T07:24:48.581Z,5.55
2022-10-07T07:27:19.178Z,4.90
2022-10-07T07:29:50.437Z,4.65
2022-10-07T07:32:20.748Z,5.10
2022-10-07T07:37:44.755Z,6.53
2022-10-07T07:40:15.223Z,4.30
2022-10-07T07:42:45.612Z,4.40
2022-10-07T07:45:18.154Z,4.47
2022-10-07T07:47:49.786Z,4.38
2022-10-07T07:50:27.145Z,4.63
2022-10-07T07:53:04.645Z,5.57
2022-10-07T07:55:36.033Z,4.75
2022-10-07T08:00:42.370Z,4.20
2022-10-07T08:03:12.608Z,3.78
2022-10-07T08:05:42.779Z,3.72
2022-10-07T08:08:15.733Z,3.78
2022-10-07T08:10:51.130Z,3.40
2022-10-07T08:13:22.523Z,3.75
2022-10-07T08:15:53.207Z,3.67
2022-10-07T08:21:00.408Z,3.25
2022-10-07T08:23:34.201Z,3.70
2022-10-07T08:26:04.884Z,6.07
2022-10-07T08:28:37.733Z,3.42
2022-10-07T08:31:13.351Z,3.58
2022-10-07T08:33:46.343Z,3.45
2022-10-07T08:36:19.333Z,2.88
2022-10-07T08:38:53.032Z,3.20
2022-10-07T08:41:38.652Z,3.72
2022-10-07T08:44:22.160Z,3.28
2022-10-07T08:46:59.681Z,3.25
2022-10-07T08:49:40.326Z,3.40
2022-10-07T08:52:43.305Z,3.13
2022-10-07T08:55:27.151Z,3.47
2022-10-07T08:58:19.897Z,3.25
2022-10-07T09:00:58.561Z,3.20
2022-10-07T09:03:45.275Z,2.95
2022-10-07T09:06:20.073Z,3.22
2022-10-07T09:08:57.368Z,3.38
2022-10-07T09:11:32.472Z,3.72
2022-10-07T09:14:06.908Z,3.05
2022-10-07T09:16:43.531Z,3.25
2022-10-07T09:19:25.045Z,2.78
2022-10-07T09:21:55.302Z,2.80
2022-10-07T09:24:29.131Z,3.13
2022-10-07T09:27:11.472Z,2.75
2022-10-07T09:29:41.724Z,2.95
2022-10-07T09:32:15.126Z,3.30
2022-10-07T09:34:45.244Z,3.08
2022-10-07T09:37:22.451Z,3.38
2022-10-07T09:39:55.279Z,3.15
2022-10-07T09:42:42.875Z,3.25
2022-10-07T09:45:25.127Z,4.00
2022-10-07T09:47:57.206Z,3.17
2022-10-07T09:50:37.427Z,3.13
2022-10-07T09:53:09.062Z,3.38
2022-10-07T09:55:44.008Z,3.05
2022-10-07T09:58:28.465Z,2.95
2022-10-07T10:01:01.060Z,3.78
2022-10-07T10:03:33.653Z,3.50
2022-10-07T10:06:06.213Z,2.70
2022-10-07T10:08:40.484Z,3.38
2022-10-07T10:11:28.849Z,3.35
2022-10-07T10:14:01.741Z,2.60
2022-10-07T10:16:40.550Z,2.50
2022-10-07T10:19:26.497Z,2.28
2022-10-07T10:21:59.183Z,2.13
2022-10-07T10:24:52.460Z,1.85
2022-10-07T10:27:29.120Z,2.40
2022-10-07T10:30:07.172Z,2.65
2022-10-07T10:33:12.335Z,2.30
2022-10-07T10:35:54.073Z,1.90
2022-10-07T10:38:36.696Z,1.70
2022-10-07T10:41:21.759Z,1.80
2022-10-07T10:44:15.521Z,1.67
2022-10-07T10:47:00.933Z,1.70
2022-10-07T10:49:37.927Z,1.70
2022-10-07T10:52:35.122Z,1.60
2022-10-07T10:55:29.026Z,1.67
2022-10-07T10:58:16.089Z,1.50
2022-10-07T11:01:00.433Z,1.75
2022-10-07T11:03:50.142Z,1.63
2022-10-07T11:06:22.443Z,1.53
2022-10-07T11:08:54.785Z,1.70
2022-10-07T11:11:26.390Z,1.60
2022-10-07T11:14:02.745Z,1.60
2022-10-07T11:16:38.645Z,1.80
2022-10-07T11:19:19.299Z,1.80
2022-10-07T11:21:52.410Z,1.65
2022-10-07T11:24:30.576Z,1.92
2022-10-07T11:27:05.817Z,1.88
2022-10-07T11:29:48.533Z,2.00
2022-10-07T11:32:25.149Z,1.75
2022-10-07T11:35:04.940Z,1.92
2022-10-07T11:37:45.010Z,1.60
2022-10-07T11:40:16.666Z,1.90
2022-10-07T11:42:52.025Z,1.73
2022-10-07T11:45:29.643Z,1.75
2022-10-07T11:48:05.404Z,1.80
2022-10-07T11:50:42.807Z,1.50
2022-10-07T11:53:23.167Z,2.17
2022-10-07T11:56:02.216Z,2.15
2022-10-07T11:58:37.233Z,1.73
2022-10-07T12:01:43.857Z,2.42
2022-10-07T12:04:43.362Z,2.20
2022-10-07T12:08:04.547Z,1.80
2022-10-07T12:10:36.435Z,2.30
2022-10-07T12:13:40.146Z,1.88
2022-10-07T12:16:43.973Z,1.77
2022-10-07T12:19:23.835Z,1.85
2022-10-07T12:22:22.066Z,1.98
2022-10-07T12:25:33.979Z,2.10
2022-10-07T12:28:04.420Z,2.00
2022-10-07T12:30:45.166Z,1.90
2022-10-07T12:33:21.184Z,1.80
2022-10-07T12:35:54.936Z,2.00
2022-10-07T12:38:28.981Z,2.00
2022-10-07T12:41:26.118Z,2.10
2022-10-07T12:44:06.509Z,2.17
2022-10-07T12:46:47.916Z,2.13
2022-10-07T12:49:27.368Z,2.35
2022-10-07T12:51:58.972Z,2.05
2022-10-07T12:54:36.377Z,1.90
2022-10-07T12:57:15.750Z,1.95
2022-10-07T13:03:08.799Z,1.88
2022-10-07T13:06:10.893Z,2.00
2022-10-07T13:09:16.305Z,2.25
2022-10-07T13:12:20.733Z,2.22
2022-10-07T13:15:16.390Z,1.90
2022-10-07T13:17:53.651Z,2.00
2022-10-07T13:21:00.913Z,2.17
2022-10-07T13:23:34.258Z,2.03
2022-10-07T13:26:05.712Z,2.00
2022-10-07T13:28:49.726Z,1.90
2022-10-07T13:31:24.611Z,2.20
2022-10-07T13:33:57.275Z,2.10
2022-10-07T13:36:31.687Z,2.05
2022-10-07T13:39:15.452Z,2.10
2022-10-07T13:41:49.021Z,2.15
2022-10-07T13:44:24.479Z,1.98
2022-10-07T13:47:00.305Z,1.85
2022-10-07T13:49:40.285Z,1.70
2022-10-07T13:52:21.645Z,1.90
2022-10-07T13:54:56.013Z,2.20
2022-10-07T13:57:27.149Z,1.92
2022-10-07T14:00:00.917Z,2.15
2022-10-07T14:02:33.392Z,1.98
2022-10-07T14:05:22.611Z,1.70
2022-10-07T14:07:56.984Z,1.90
2022-10-07T14:10:29.901Z,2.72
2022-10-07T14:13:03.450Z,2.00
2022-10-07T14:15:40.290Z,3.42
2022-10-07T14:18:13.496Z,1.98
2022-10-07T14:20:53.277Z,1.85
2022-10-07T14:23:31.190Z,1.95
2022-10-07T14:26:04.275Z,2.00
2022-10-07T14:28:36.389Z,1.80
2022-10-07T14:31:35.260Z,2.05
2022-10-07T14:34:28.849Z,1.95
2022-10-07T14:37:08.306Z,2.10
2022-10-07T14:39:42.607Z,1.57
2022-10-07T14:42:18.506Z,2.40
2022-10-07T14:44:49.405Z,2.05
2022-10-07T14:47:25.211Z,2.00
2022-10-07T14:49:57.360Z,2.00
2022-10-07T14:52:31.625Z,1.70
2022-10-07T14:55:07.689Z,1.73
2022-10-07T14:57:37.867Z,2.65
2022-10-07T15:00:17.727Z,1.75
2022-10-07T15:02:51.209Z,2.17
2022-10-07T15:05:22.858Z,2.63
2022-10-07T15:07:53.562Z,2.25
2022-10-07T15:12:57.786Z,5.20
2022-10-07T15:15:28.237Z,2.53
2022-10-07T15:18:01.130Z,2.10
2022-10-07T15:20:31.287Z,2.10
2022-10-07T15:23:02.706Z,2.33
2022-10-07T15:25:33.709Z,2.60
2022-10-07T15:28:04.258Z,2.63
2022-10-07T15:30:39.050Z,2.65
2022-10-07T15:33:13.362Z,1.95
2022-10-07T15:35:43.647Z,2.60
2022-10-07T15:38:13.813Z,2.67
2022-10-07T15:40:56.483Z,2.03
2022-10-07T15:43:27.547Z,3.10
2022-10-07T15:46:01.313Z,2.85
2022-10-07T15:48:34.230Z,3.63
2022-10-07T15:51:04.984Z,3.05
2022-10-07T15:53:37.510Z,2.50
2022-10-07T15:56:09.600Z,2.85
2022-10-07T15:58:41.190Z,2.55
2022-10-07T16:01:12.588Z,2.40
2022-10-07T16:03:48.826Z,2.70
2022-10-07T16:06:22.874Z,4.65
2022-10-07T16:08:56.495Z,3.20
2022-10-07T16:11:29.195Z,2.95
2022-10-07T16:13:59.562Z,2.95
2022-10-07T16:16:32.517Z,2.35
2022-10-07T16:19:05.423Z,2.83
2022-10-07T16:21:38.454Z,2.90
2022-10-07T16:24:11.834Z,2.60
2022-10-07T16:26:42.181Z,4.90
2022-10-07T16:29:29.512Z,4.88
2022-10-07T16:31:59.954Z,4.65
2022-10-07T16:34:33.166Z,4.50
2022-10-07T16:37:03.312Z,4.43
2022-10-07T16:39:33.683Z,3.88
2022-10-07T16:42:04.211Z,3.33
2022-10-07T16:44:34.450Z,3.60
2022-10-07T16:47:04.922Z,3.45
2022-10-07T16:49:37.761Z,3.33
2022-10-07T16:52:10.963Z,4.00
2022-10-07T16:54:41.346Z,3.95
2022-10-07T16:57:11.571Z,4.05
2022-10-07T16:59:41.762Z,3.63
2022-10-07T17:02:12.294Z,3.35
2022-10-07T17:04:48.234Z,2.95
2022-10-07T17:07:21.241Z,3.67
2022-10-07T17:09:53.394Z,3.10
2022-10-07T17:12:25.668Z,3.00
2022-10-07T17:14:59.154Z,4.28
2022-10-07T17:17:33.975Z,3.58
2022-10-07T17:20:13.221Z,3.55
2022-10-07T17:22:49.531Z,4.10
2022-10-07T17:25:20.000Z,5.82
2022-10-07T17:27:50.397Z,7.68
2022-10-07T17:30:20.813Z,11.98
2022-10-07T17:32:54.339Z,14.77
2022-10-07T17:35:28.449Z,10.98
2022-10-07T17:38:01.709Z,8.20
2022-10-07T17:40:32.888Z,5.65
2022-10-07T17:43:09.652Z,5.15
2022-10-07T17:45:47.943Z,4.30
2022-10-07T17:48:20.932Z,4.43
2022-10-07T17:50:57.365Z,5.30
2022-10-07T17:53:27.900Z,11.52
2022-10-07T17:56:00.446Z,8.25
2022-10-07T17:58:32.256Z,8.85
2022-10-07T18:01:10.096Z,12.48
2022-10-07T18:03:40.990Z,8.02
2022-10-07T18:08:46.928Z,6.53
2022-10-07T18:11:18.632Z,6.65
2022-10-07T18:14:01.550Z,8.93
2022-10-07T18:16:37.830Z,10.70
2022-10-07T18:19:08.988Z,11.68
2022-10-07T18:21:48.310Z,12.75
2022-10-07T18:24:21.348Z,13.05
2022-10-07T18:26:51.917Z,12.77
2022-10-07T18:29:25.183Z,7.38
2022-10-07T18:31:55.590Z,6.15
2022-10-07T18:34:32.591Z,7.88
2022-10-07T18:37:05.465Z,8.57
2022-10-07T18:39:36.203Z,8.98
2022-10-07T18:42:08.439Z,10.80
2022-10-07T18:44:40.031Z,9.88
2022-10-07T18:47:10.222Z,7.82
2022-10-07T18:49:40.437Z,7.85
2022-10-07T18:52:17.449Z,8.20
2022-10-07T18:54:47.630Z,17.02
2022-10-07T18:57:24.284Z,10.15
2022-10-07T19:00:05.119Z,7.15
2022-10-07T19:02:35.554Z,8.98
2022-10-07T19:05:08.768Z,9.13
2022-10-07T19:07:41.688Z,8.10
2022-10-07T19:10:15.393Z,7.80
2022-10-07T19:13:06.904Z,7.38
2022-10-07T19:15:40.954Z,6.63
2022-10-07T19:18:13.501Z,7.75
2022-10-07T19:20:58.960Z,6.70
2022-10-07T19:23:32.375Z,7.80
2022-10-07T19:26:05.700Z,7.60
2022-10-07T19:28:40.000Z,7.47
2022-10-07T19:31:20.339Z,7.43
2022-10-07T19:33:51.086Z,7.30
2022-10-07T19:36:26.438Z,7.68
2022-10-07T19:39:03.857Z,7.70
2022-10-07T19:41:36.931Z,7.78
2022-10-07T19:44:10.379Z,7.18
2022-10-07T19:46:46.565Z,7.18
2022-10-07T19:49:18.532Z,9.10
2022-10-07T19:51:53.601Z,9.30
2022-10-07T19:54:27.991Z,8.75
2022-10-07T19:57:00.281Z,8.27
2022-10-07T19:59:30.459Z,8.02
2022-10-07T20:02:01.371Z,8.77
2022-10-07T20:04:31.969Z,7.63
2022-10-07T20:07:02.313Z,8.70
2022-10-07T20:09:35.145Z,8.30
2022-10-07T20:12:05.371Z,8.60
2022-10-07T20:14:35.795Z,8.48
2022-10-07T20:17:06.032Z,7.07
2022-10-07T20:19:36.266Z,6.72
2022-10-07T20:22:06.463Z,8.32
2022-10-07T20:24:39.319Z,7.30
2022-10-07T20:27:09.460Z,7.70
2022-10-07T20:29:57.263Z,8.17
2022-10-07T20:32:28.659Z,7.63
2022-10-07T20:34:58.922Z,8.68
2022-10-07T20:37:29.448Z,7.65
2022-10-07T20:40:15.529Z,6.95
2022-10-07T20:42:47.092Z,8.25
2022-10-07T20:45:17.720Z,6.70
2022-10-07T20:47:48.011Z,6.18
2022-10-07T20:50:18.378Z,6.72
2022-10-07T20:52:49.011Z,6.50
2022-10-07T20:55:22.031Z,6.15
2022-10-07T20:57:53.521Z,6.00
2022-10-07T21:00:23.657Z,7.28
2022-10-07T21:02:53.767Z,8.27
2022-10-07T21:05:24.463Z,7.55
2022-10-07T21:07:54.982Z,7.90
2022-10-07T21:10:27.992Z,5.50
2022-10-07T21:12:58.743Z,8.75
2022-10-07T21:15:29.422Z,6.93
2022-10-07T21:17:59.676Z,6.72
2022-10-07T21:20:29.809Z,7.10
2022-10-07T21:22:59.841Z,5.87
2022-10-07T21:25:34.111Z,7.10
2022-10-07T21:28:04.312Z,5.95
2022-10-07T21:30:34.722Z,6.20
2022-10-07T21:33:05.420Z,5.53
2022-10-07T21:35:35.786Z,5.50
2022-10-07T21:38:06.080Z,5.68
2022-10-07T21:40:38.914Z,5.30
2022-10-07T21:43:09.072Z,5.45
2022-10-07T21:45:39.198Z,5.60
2022-10-07T21:48:09.390Z,4.73
2022-10-07T21:50:39.706Z,5.20
2022-10-07T21:53:09.952Z,5.68
2022-10-07T21:55:43.656Z,5.15
2022-10-07T21:58:15.123Z,5.43
2022-10-07T22:00:45.653Z,7.68
2022-10-07T22:03:16.694Z,6.25
2022-10-07T22:05:46.952Z,5.57
2022-10-07T22:08:32.348Z,4.68
2022-10-07T22:11:08.325Z,6.40
2022-10-07T22:13:41.382Z,8.85
2022-10-07T22:16:15.055Z,6.18
2022-10-07T22:18:49.189Z,6.53
2022-10-07T22:21:22.731Z,5.35
2022-10-07T22:23:55.014Z,4.60
2022-10-07T22:26:31.642Z,5.18
2022-10-07T22:29:02.430Z,6.13
2022-10-07T22:31:33.231Z,6.45
2022-10-07T22:34:04.247Z,5.35
2022-10-07T22:39:04.360Z,4.78
2022-10-07T22:41:37.288Z,4.72
2022-10-07T22:44:07.697Z,5.35
2022-10-07T22:46:38.352Z,4.97
2022-10-07T22:49:08.585Z,4.93
2022-10-07T22:51:40.053Z,4.93
2022-10-07T22:54:10.272Z,4.97
2022-10-07T22:56:44.629Z,5.20
2022-10-07T22:59:14.850Z,13.38
2022-10-07T23:01:45.125Z,9.00
2022-10-07T23:04:15.360Z,4.78
2022-10-07T23:06:45.530Z,4.82
2022-10-07T23:09:15.753Z,4.57
2022-10-07T23:11:48.684Z,4.43
2022-10-07T23:14:18.922Z,4.22
2022-10-07T23:16:49.124Z,5.28
2022-10-07T23:19:19.267Z,4.57
2022-10-07T23:21:49.423Z,5.10
2022-10-07T23:24:19.521Z,4.70
2022-10-07T23:26:52.234Z,4.57
2022-10-07T23:29:22.496Z,4.20
2022-10-07T23:31:52.701Z,5.40
2022-10-07T23:34:22.912Z,5.40
2022-10-07T23:36:55.336Z,4.22
2022-10-07T23:39:25.882Z,4.50
2022-10-07T23:41:58.663Z,4.30
2022-10-07T23:44:28.925Z,4.88
2022-10-07T23:46:59.088Z,6.95
2022-10-07T23:49:29.223Z,6.17
2022-10-07T23:51:59.367Z,4.50
2022-10-07T23:54:29.554Z,4.70
2022-10-07T23:57:02.421Z,4.07
2022-10-07T23:59:32.609Z,4.55
